sensor_id;sensor_type;location;lat;lon;timestamp;P1;durP1;ratioP1;P2;durP2;ratioP2
69256;SDS011;56376;53.356;-1.748;2023-04-15T00:01:11;10.50;;;4.70;;
69256;SDS011;56376;53.356;-1.748;2023-04-15T00:03:37;9.50;;;4.67;;
69256;SDS011;56376;53.356;-1.748;2023-04-15T00:06:02;6.97;;;4.03;;
69256;SDS011;56376;53.356;-1.748;2023-04-15T00:08:28;5.97;;;3.90;;
69256;SDS011;56376;53.356;-1.748;2023-04-15T00:10:54;7.20;;;3.53;;
69256;SDS011;56376;53.356;-1.748;2023-04-15T00:13:19;5.03;;;2.97;;
69256;SDS011;56376;53.356;-1.748;2023-04-15T00:15:45;3.87;;;3.23;;
69256;SDS011;56376;53.356;-1.748;2023-04-15T00:18:10;4.23;;;2.90;;
69256;SDS011;56376;53.356;-1.748;2023-04-15T00:20:35;3.43;;;3.13;;
69256;SDS011;56376;53.356;-1.748;2023-04-15T00:23:01;4.87;;;3.97;;
69256;SDS011;56376;53.356;-1.748;2023-04-15T00:25:27;5.00;;;3.90;;
69256;SDS011;56376;53.356;-1.748;2023-04-15T00:27:53;4.33;;;3.90;;
69256;SDS011;56376;53.356;-1.748;2023-04-15T00:30:20;5.27;;;3.97;;
69256;SDS011;56376;53.356;-1.748;2023-04-15T00:32:45;4.83;;;4.27;;
69256;SDS011;56376;53.356;-1.748;2023-04-15T00:35:10;5.00;;;4.47;;
69256;SDS011;56376;53.356;-1.748;2023-04-15T00:37:36;5.27;;;4.70;;
69256;SDS011;56376;53.356;-1.748;2023-04-15T00:40:02;6.30;;;5.20;;
69256;SDS011;56376;53.356;-1.748;2023-04-15T00:42:30;5.67;;;5.07;;
69256;SDS011;56376;53.356;-1.748;2023-04-15T00:44:55;5.50;;;4.90;;
69256;SDS011;56376;53.356;-1.748;2023-04-15T00:47:21;5.33;;;4.80;;
69256;SDS011;56376;53.356;-1.748;2023-04-15T00:49:46;5.40;;;4.67;;
69256;SDS011;56376;53.356;-1.748;2023-04-15T00:52:12;5.53;;;5.03;;
69256;SDS011;56376;53.356;-1.748;2023-04-15T00:54:37;5.43;;;4.13;;
69256;SDS011;56376;53.356;-1.748;2023-04-15T00:57:04;4.70;;;4.30;;
69256;SDS011;56376;53.356;-1.748;2023-04-15T00:59:30;5.37;;;4.43;;
69256;SDS011;56376;53.356;-1.748;2023-04-15T01:01:57;6.70;;;5.80;;
69256;SDS011;56376;53.356;-1.748;2023-04-15T01:04:22;7.13;;;6.23;;
69256;SDS011;56376;53.356;-1.748;2023-04-15T01:06:49;6.13;;;5.53;;
69256;SDS011;56376;53.356;-1.748;2023-04-15T01:09:14;5.77;;;5.17;;
69256;SDS011;56376;53.356;-1.748;2023-04-15T01:11:40;5.87;;;5.10;;
69256;SDS011;56376;53.356;-1.748;2023-04-15T01:14:05;5.00;;;4.50;;
69256;SDS011;56376;53.356;-1.748;2023-04-15T01:16:32;5.77;;;4.83;;
69256;SDS011;56376;53.356;-1.748;2023-04-15T01:18:58;4.60;;;4.20;;
69256;SDS011;56376;53.356;-1.748;2023-04-15T01:21:24;4.97;;;4.47;;
69256;SDS011;56376;53.356;-1.748;2023-04-15T01:23:49;4.57;;;4.13;;
69256;SDS011;56376;53.356;-1.748;2023-04-15T01:26:16;4.73;;;4.23;;
69256;SDS011;56376;53.356;-1.748;2023-04-15T01:28:42;4.03;;;3.63;;
69256;SDS011;56376;53.356;-1.748;2023-04-15T01:31:11;3.57;;;3.27;;
69256;SDS011;56376;53.356;-1.748;2023-04-15T01:33:41;4.47;;;3.70;;
69256;SDS011;56376;53.356;-1.748;2023-04-15T01:36:07;3.43;;;3.13;;
69256;SDS011;56376;53.356;-1.748;2023-04-15T01:38:35;3.70;;;3.23;;
69256;SDS011;56376;53.356;-1.748;2023-04-15T01:41:01;3.63;;;3.33;;
69256;SDS011;56376;53.356;-1.748;2023-04-15T01:43:28;4.20;;;3.80;;
69256;SDS011;56376;53.356;-1.748;2023-04-15T01:45:54;3.70;;;3.40;;
69256;SDS011;56376;53.356;-1.748;2023-04-15T01:48:20;3.63;;;3.33;;
69256;SDS011;56376;53.356;-1.748;2023-04-15T01:50:47;3.73;;;3.30;;
69256;SDS011;56376;53.356;-1.748;2023-04-15T01:53:12;4.50;;;4.10;;
69256;SDS011;56376;53.356;-1.748;2023-04-15T01:55:38;4.07;;;3.33;;
69256;SDS011;56376;53.356;-1.748;2023-04-15T01:58:03;4.03;;;3.70;;
69256;SDS011;56376;53.356;-1.748;2023-04-15T02:00:29;4.27;;;3.83;;
69256;SDS011;56376;53.356;-1.748;2023-04-15T02:02:56;3.77;;;3.40;;
69256;SDS011;56376;53.356;-1.748;2023-04-15T02:05:22;3.07;;;2.83;;
69256;SDS011;56376;53.356;-1.748;2023-04-15T02:07:47;3.30;;;3.00;;
69256;SDS011;56376;53.356;-1.748;2023-04-15T02:10:13;2.77;;;2.57;;
69256;SDS011;56376;53.356;-1.748;2023-04-15T02:12:40;2.70;;;2.50;;
69256;SDS011;56376;53.356;-1.748;2023-04-15T02:15:06;2.60;;;2.40;;
69256;SDS011;56376;53.356;-1.748;2023-04-15T02:17:35;2.77;;;2.57;;
69256;SDS011;56376;53.356;-1.748;2023-04-15T02:20:02;2.70;;;2.50;;
69256;SDS011;56376;53.356;-1.748;2023-04-15T02:22:30;2.53;;;2.33;;
69256;SDS011;56376;53.356;-1.748;2023-04-15T02:24:55;3.60;;;2.97;;
69256;SDS011;56376;53.356;-1.748;2023-04-15T02:27:21;2.70;;;2.50;;
69256;SDS011;56376;53.356;-1.748;2023-04-15T02:29:46;2.93;;;2.73;;
69256;SDS011;56376;53.356;-1.748;2023-04-15T02:32:12;3.03;;;2.43;;
69256;SDS011;56376;53.356;-1.748;2023-04-15T02:34:38;2.73;;;2.40;;
69256;SDS011;56376;53.356;-1.748;2023-04-15T02:37:05;2.37;;;2.17;;
69256;SDS011;56376;53.356;-1.748;2023-04-15T02:39:31;2.77;;;2.57;;
69256;SDS011;56376;53.356;-1.748;2023-04-15T02:41:57;3.93;;;3.07;;
69256;SDS011;56376;53.356;-1.748;2023-04-15T02:44:24;3.27;;;2.97;;
69256;SDS011;56376;53.356;-1.748;2023-04-15T02:46:49;3.30;;;3.00;;
69256;SDS011;56376;53.356;-1.748;2023-04-15T02:49:16;2.87;;;2.57;;
69256;SDS011;56376;53.356;-1.748;2023-04-15T02:51:42;3.33;;;2.93;;
69256;SDS011;56376;53.356;-1.748;2023-04-15T02:54:11;3.20;;;2.90;;
69256;SDS011;56376;53.356;-1.748;2023-04-15T02:56:37;3.73;;;2.80;;
69256;SDS011;56376;53.356;-1.748;2023-04-15T02:59:02;3.20;;;2.90;;
69256;SDS011;56376;53.356;-1.748;2023-04-15T03:01:28;3.10;;;2.87;;
69256;SDS011;56376;53.356;-1.748;2023-04-15T03:03:54;3.13;;;2.70;;
69256;SDS011;56376;53.356;-1.748;2023-04-15T03:06:19;3.30;;;3.00;;
69256;SDS011;56376;53.356;-1.748;2023-04-15T03:08:45;3.10;;;2.80;;
69256;SDS011;56376;53.356;-1.748;2023-04-15T03:11:10;3.10;;;2.80;;
69256;SDS011;56376;53.356;-1.748;2023-04-15T03:13:36;3.10;;;2.80;;
69256;SDS011;56376;53.356;-1.748;2023-04-15T03:16:03;3.43;;;3.00;;
69256;SDS011;56376;53.356;-1.748;2023-04-15T03:18:29;3.03;;;2.73;;
69256;SDS011;56376;53.356;-1.748;2023-04-15T03:20:55;2.93;;;2.67;;
69256;SDS011;56376;53.356;-1.748;2023-04-15T03:23:20;4.10;;;3.40;;
69256;SDS011;56376;53.356;-1.748;2023-04-15T03:25:45;3.70;;;3.40;;
69256;SDS011;56376;53.356;-1.748;2023-04-15T03:28:11;4.30;;;3.90;;
69256;SDS011;56376;53.356;-1.748;2023-04-15T03:30:36;5.10;;;4.60;;
69256;SDS011;56376;53.356;-1.748;2023-04-15T03:33:02;4.53;;;4.03;;
69256;SDS011;56376;53.356;-1.748;2023-04-15T03:35:27;3.60;;;3.27;;
69256;SDS011;56376;53.356;-1.748;2023-04-15T03:37:53;3.20;;;2.90;;
69256;SDS011;56376;53.356;-1.748;2023-04-15T03:40:19;3.10;;;2.80;;
69256;SDS011;56376;53.356;-1.748;2023-04-15T03:42:45;5.30;;;4.80;;
69256;SDS011;56376;53.356;-1.748;2023-04-15T03:45:10;4.47;;;4.00;;
69256;SDS011;56376;53.356;-1.748;2023-04-15T03:47:36;4.33;;;3.93;;
69256;SDS011;56376;53.356;-1.748;2023-04-15T03:50:01;3.90;;;3.50;;
69256;SDS011;56376;53.356;-1.748;2023-04-15T03:52:27;4.30;;;3.57;;
69256;SDS011;56376;53.356;-1.748;2023-04-15T03:54:52;4.37;;;3.90;;
69256;SDS011;56376;53.356;-1.748;2023-04-15T03:57:17;3.77;;;3.37;;
69256;SDS011;56376;53.356;-1.748;2023-04-15T03:59:43;3.23;;;2.93;;
69256;SDS011;56376;53.356;-1.748;2023-04-15T04:02:08;3.57;;;3.20;;
69256;SDS011;56376;53.356;-1.748;2023-04-15T04:04:34;3.80;;;3.30;;
69256;SDS011;56376;53.356;-1.748;2023-04-15T04:06:59;4.50;;;4.10;;
69256;SDS011;56376;53.356;-1.748;2023-04-15T04:09:25;3.60;;;3.20;;
69256;SDS011;56376;53.356;-1.748;2023-04-15T04:11:51;3.33;;;3.03;;
69256;SDS011;56376;53.356;-1.748;2023-04-15T04:14:17;4.43;;;3.70;;
69256;SDS011;56376;53.356;-1.748;2023-04-15T04:16:42;4.03;;;3.60;;
69256;SDS011;56376;53.356;-1.748;2023-04-15T04:19:08;3.97;;;3.57;;
69256;SDS011;56376;53.356;-1.748;2023-04-15T04:21:34;4.43;;;4.00;;
69256;SDS011;56376;53.356;-1.748;2023-04-15T04:24:00;3.93;;;3.53;;
69256;SDS011;56376;53.356;-1.748;2023-04-15T04:26:26;4.60;;;4.13;;
69256;SDS011;56376;53.356;-1.748;2023-04-15T04:28:51;4.90;;;4.50;;
69256;SDS011;56376;53.356;-1.748;2023-04-15T04:31:17;4.90;;;4.40;;
69256;SDS011;56376;53.356;-1.748;2023-04-15T04:33:42;5.10;;;3.73;;
69256;SDS011;56376;53.356;-1.748;2023-04-15T04:36:08;3.97;;;3.57;;
69256;SDS011;56376;53.356;-1.748;2023-04-15T04:38:33;3.80;;;3.43;;
69256;SDS011;56376;53.356;-1.748;2023-04-15T04:40:59;3.60;;;3.10;;
69256;SDS011;56376;53.356;-1.748;2023-04-15T04:43:24;3.97;;;3.30;;
69256;SDS011;56376;53.356;-1.748;2023-04-15T04:45:51;3.63;;;3.33;;
69256;SDS011;56376;53.356;-1.748;2023-04-15T04:48:16;3.60;;;3.00;;
69256;SDS011;56376;53.356;-1.748;2023-04-15T04:50:42;2.80;;;2.50;;
69256;SDS011;56376;53.356;-1.748;2023-04-15T04:53:08;2.70;;;2.43;;
69256;SDS011;56376;53.356;-1.748;2023-04-15T04:55:34;2.93;;;2.63;;
69256;SDS011;56376;53.356;-1.748;2023-04-15T04:58:01;2.90;;;2.43;;
69256;SDS011;56376;53.356;-1.748;2023-04-15T05:00:26;2.67;;;2.47;;
69256;SDS011;56376;53.356;-1.748;2023-04-15T05:02:52;3.10;;;2.80;;
69256;SDS011;56376;53.356;-1.748;2023-04-15T05:05:17;3.10;;;2.80;;
69256;SDS011;56376;53.356;-1.748;2023-04-15T05:07:43;3.07;;;2.50;;
69256;SDS011;56376;53.356;-1.748;2023-04-15T05:10:08;3.23;;;2.93;;
69256;SDS011;56376;53.356;-1.748;2023-04-15T05:12:34;3.00;;;2.70;;
69256;SDS011;56376;53.356;-1.748;2023-04-15T05:15:01;3.20;;;2.80;;
69256;SDS011;56376;53.356;-1.748;2023-04-15T05:17:26;2.97;;;2.67;;
69256;SDS011;56376;53.356;-1.748;2023-04-15T05:19:52;3.93;;;3.43;;
69256;SDS011;56376;53.356;-1.748;2023-04-15T05:22:17;2.93;;;2.67;;
69256;SDS011;56376;53.356;-1.748;2023-04-15T05:24:43;3.83;;;3.33;;
69256;SDS011;56376;53.356;-1.748;2023-04-15T05:27:08;4.00;;;3.10;;
69256;SDS011;56376;53.356;-1.748;2023-04-15T05:29:35;3.77;;;3.37;;
69256;SDS011;56376;53.356;-1.748;2023-04-15T05:32:01;3.23;;;2.93;;
69256;SDS011;56376;53.356;-1.748;2023-04-15T05:34:26;3.10;;;2.80;;
69256;SDS011;56376;53.356;-1.748;2023-04-15T05:36:51;2.53;;;2.33;;
69256;SDS011;56376;53.356;-1.748;2023-04-15T05:39:17;2.67;;;2.40;;
69256;SDS011;56376;53.356;-1.748;2023-04-15T05:41:42;3.17;;;2.87;;
69256;SDS011;56376;53.356;-1.748;2023-04-15T05:44:08;3.27;;;2.90;;
69256;SDS011;56376;53.356;-1.748;2023-04-15T05:46:34;3.63;;;3.33;;
69256;SDS011;56376;53.356;-1.748;2023-04-15T05:48:59;3.97;;;3.57;;
69256;SDS011;56376;53.356;-1.748;2023-04-15T05:51:25;3.87;;;3.47;;
69256;SDS011;56376;53.356;-1.748;2023-04-15T05:53:50;4.20;;;3.60;;
69256;SDS011;56376;53.356;-1.748;2023-04-15T05:56:15;4.20;;;3.70;;
69256;SDS011;56376;53.356;-1.748;2023-04-15T05:58:41;4.50;;;3.53;;
69256;SDS011;56376;53.356;-1.748;2023-04-15T06:01:07;4.67;;;3.83;;
69256;SDS011;56376;53.356;-1.748;2023-04-15T06:03:32;3.60;;;3.27;;
69256;SDS011;56376;53.356;-1.748;2023-04-15T06:05:58;4.30;;;3.90;;
69256;SDS011;56376;53.356;-1.748;2023-04-15T06:08:24;3.73;;;3.33;;
69256;SDS011;56376;53.356;-1.748;2023-04-15T06:10:50;3.83;;;3.30;;
69256;SDS011;56376;53.356;-1.748;2023-04-15T06:13:15;4.70;;;3.77;;
69256;SDS011;56376;53.356;-1.748;2023-04-15T06:15:41;4.73;;;3.70;;
69256;SDS011;56376;53.356;-1.748;2023-04-15T06:18:07;4.23;;;3.83;;
69256;SDS011;56376;53.356;-1.748;2023-04-15T06:20:32;5.83;;;4.73;;
69256;SDS011;56376;53.356;-1.748;2023-04-15T06:22:57;5.87;;;4.90;;
69256;SDS011;56376;53.356;-1.748;2023-04-15T06:25:23;5.37;;;4.83;;
69256;SDS011;56376;53.356;-1.748;2023-04-15T06:27:48;7.30;;;5.73;;
69256;SDS011;56376;53.356;-1.748;2023-04-15T06:30:13;6.23;;;4.73;;
69256;SDS011;56376;53.356;-1.748;2023-04-15T06:32:39;5.87;;;5.10;;
69256;SDS011;56376;53.356;-1.748;2023-04-15T06:35:04;4.93;;;4.47;;
69256;SDS011;56376;53.356;-1.748;2023-04-15T06:37:30;5.40;;;4.90;;
69256;SDS011;56376;53.356;-1.748;2023-04-15T06:39:56;6.87;;;4.57;;
69256;SDS011;56376;53.356;-1.748;2023-04-15T06:42:22;5.73;;;4.97;;
69256;SDS011;56376;53.356;-1.748;2023-04-15T06:44:47;5.47;;;4.50;;
69256;SDS011;56376;53.356;-1.748;2023-04-15T06:47:13;6.70;;;5.07;;
69256;SDS011;56376;53.356;-1.748;2023-04-15T06:49:39;6.20;;;5.60;;
69256;SDS011;56376;53.356;-1.748;2023-04-15T06:52:04;8.33;;;6.37;;
69256;SDS011;56376;53.356;-1.748;2023-04-15T06:54:30;7.13;;;6.07;;
69256;SDS011;56376;53.356;-1.748;2023-04-15T06:56:55;8.47;;;6.60;;
69256;SDS011;56376;53.356;-1.748;2023-04-15T06:59:20;8.90;;;7.10;;
69256;SDS011;56376;53.356;-1.748;2023-04-15T07:01:46;8.83;;;7.60;;
69256;SDS011;56376;53.356;-1.748;2023-04-15T07:04:11;11.77;;;8.33;;
69256;SDS011;56376;53.356;-1.748;2023-04-15T07:06:37;9.20;;;7.77;;
69256;SDS011;56376;53.356;-1.748;2023-04-15T07:09:02;8.60;;;7.70;;
69256;SDS011;56376;53.356;-1.748;2023-04-15T07:11:29;7.90;;;6.90;;
69256;SDS011;56376;53.356;-1.748;2023-04-15T07:13:54;7.40;;;6.63;;
69256;SDS011;56376;53.356;-1.748;2023-04-15T07:16:20;15.63;;;12.73;;
69256;SDS011;56376;53.356;-1.748;2023-04-15T07:18:45;15.47;;;10.80;;
69256;SDS011;56376;53.356;-1.748;2023-04-15T07:21:11;10.47;;;7.10;;
69256;SDS011;56376;53.356;-1.748;2023-04-15T07:23:36;6.60;;;5.80;;
69256;SDS011;56376;53.356;-1.748;2023-04-15T07:26:02;5.57;;;4.97;;
69256;SDS011;56376;53.356;-1.748;2023-04-15T07:28:28;5.90;;;5.30;;
69256;SDS011;56376;53.356;-1.748;2023-04-15T07:30:53;5.13;;;4.57;;
69256;SDS011;56376;53.356;-1.748;2023-04-15T07:33:21;6.47;;;4.80;;
69256;SDS011;56376;53.356;-1.748;2023-04-15T07:35:46;5.20;;;4.70;;
69256;SDS011;56376;53.356;-1.748;2023-04-15T07:38:11;4.87;;;4.20;;
69256;SDS011;56376;53.356;-1.748;2023-04-15T07:40:37;5.10;;;4.37;;
69256;SDS011;56376;53.356;-1.748;2023-04-15T07:43:03;4.33;;;3.70;;
69256;SDS011;56376;53.356;-1.748;2023-04-15T07:45:29;4.83;;;4.33;;
69256;SDS011;56376;53.356;-1.748;2023-04-15T07:47:55;4.63;;;3.80;;
69256;SDS011;56376;53.356;-1.748;2023-04-15T07:50:20;4.10;;;3.60;;
69256;SDS011;56376;53.356;-1.748;2023-04-15T07:52:47;5.03;;;3.60;;
69256;SDS011;56376;53.356;-1.748;2023-04-15T07:55:13;4.10;;;3.70;;
69256;SDS011;56376;53.356;-1.748;2023-04-15T07:57:39;5.57;;;4.03;;
69256;SDS011;56376;53.356;-1.748;2023-04-15T08:00:04;6.33;;;4.13;;
69256;SDS011;56376;53.356;-1.748;2023-04-15T08:02:31;4.38;;;3.97;;
69256;SDS011;56376;53.356;-1.748;2023-04-15T08:04:59;4.03;;;3.43;;
69256;SDS011;56376;53.356;-1.748;2023-04-15T08:07:27;4.83;;;4.27;;
69256;SDS011;56376;53.356;-1.748;2023-04-15T08:09:52;8.40;;;5.33;;
69256;SDS011;56376;53.356;-1.748;2023-04-15T08:12:18;6.43;;;3.97;;
69256;SDS011;56376;53.356;-1.748;2023-04-15T08:14:43;5.17;;;4.20;;
69256;SDS011;56376;53.356;-1.748;2023-04-15T08:17:08;5.22;;;3.15;;
69256;SDS011;56376;53.356;-1.748;2023-04-15T08:19:34;6.03;;;3.97;;
69256;SDS011;56376;53.356;-1.748;2023-04-15T08:21:59;4.70;;;3.80;;
69256;SDS011;56376;53.356;-1.748;2023-04-15T08:24:25;4.73;;;3.20;;
69256;SDS011;56376;53.356;-1.748;2023-04-15T08:26:51;5.23;;;2.83;;
69256;SDS011;56376;53.356;-1.748;2023-04-15T08:29:17;4.57;;;2.73;;
69256;SDS011;56376;53.356;-1.748;2023-04-15T08:31:42;5.47;;;2.87;;
69256;SDS011;56376;53.356;-1.748;2023-04-15T08:34:09;5.33;;;2.90;;
69256;SDS011;56376;53.356;-1.748;2023-04-15T08:36:35;5.73;;;3.20;;
69256;SDS011;56376;53.356;-1.748;2023-04-15T08:39:01;7.13;;;3.80;;
69256;SDS011;56376;53.356;-1.748;2023-04-15T08:41:29;5.53;;;2.90;;
69256;SDS011;56376;53.356;-1.748;2023-04-15T08:44:05;7.65;;;3.42;;
69256;SDS011;56376;53.356;-1.748;2023-04-15T08:46:31;3.97;;;2.90;;
69256;SDS011;56376;53.356;-1.748;2023-04-15T08:48:59;4.15;;;2.70;;
69256;SDS011;56376;53.356;-1.748;2023-04-15T08:51:28;3.88;;;2.53;;
69256;SDS011;56376;53.356;-1.748;2023-04-15T08:53:54;4.75;;;2.60;;
69256;SDS011;56376;53.356;-1.748;2023-04-15T08:56:23;4.47;;;2.80;;
69256;SDS011;56376;53.356;-1.748;2023-04-15T08:58:50;5.18;;;2.47;;
69256;SDS011;56376;53.356;-1.748;2023-04-15T09:01:16;4.57;;;2.40;;
69256;SDS011;56376;53.356;-1.748;2023-04-15T09:03:42;4.07;;;2.63;;
69256;SDS011;56376;53.356;-1.748;2023-04-15T09:06:08;5.35;;;2.45;;
69256;SDS011;56376;53.356;-1.748;2023-04-15T09:08:33;4.15;;;2.47;;
69256;SDS011;56376;53.356;-1.748;2023-04-15T09:11:00;6.72;;;2.38;;
69256;SDS011;56376;53.356;-1.748;2023-04-15T09:13:27;3.45;;;2.60;;
69256;SDS011;56376;53.356;-1.748;2023-04-15T09:15:52;2.85;;;2.33;;
69256;SDS011;56376;53.356;-1.748;2023-04-15T09:18:28;7.50;;;3.92;;
69256;SDS011;56376;53.356;-1.748;2023-04-15T09:20:55;4.00;;;2.90;;
69256;SDS011;56376;53.356;-1.748;2023-04-15T09:23:21;7.18;;;3.25;;
69256;SDS011;56376;53.356;-1.748;2023-04-15T09:25:47;7.07;;;3.17;;
69256;SDS011;56376;53.356;-1.748;2023-04-15T09:28:13;6.80;;;2.95;;
69256;SDS011;56376;53.356;-1.748;2023-04-15T09:30:38;6.93;;;3.20;;
69256;SDS011;56376;53.356;-1.748;2023-04-15T09:33:10;7.13;;;4.00;;
69256;SDS011;56376;53.356;-1.748;2023-04-15T09:35:38;6.60;;;3.50;;
69256;SDS011;56376;53.356;-1.748;2023-04-15T09:38:05;4.70;;;3.10;;
69256;SDS011;56376;53.356;-1.748;2023-04-15T09:40:39;4.88;;;2.90;;
69256;SDS011;56376;53.356;-1.748;2023-04-15T09:43:06;4.72;;;2.55;;
69256;SDS011;56376;53.356;-1.748;2023-04-15T09:45:33;4.07;;;2.28;;
69256;SDS011;56376;53.356;-1.748;2023-04-15T09:48:20;2.50;;;1.98;;
69256;SDS011;56376;53.356;-1.748;2023-04-15T09:50:49;4.78;;;2.15;;
69256;SDS011;56376;53.356;-1.748;2023-04-15T09:53:21;4.13;;;2.47;;
69256;SDS011;56376;53.356;-1.748;2023-04-15T09:55:57;3.35;;;2.28;;
69256;SDS011;56376;53.356;-1.748;2023-04-15T09:58:26;3.63;;;2.17;;
69256;SDS011;56376;53.356;-1.748;2023-04-15T10:00:53;5.43;;;2.70;;
69256;SDS011;56376;53.356;-1.748;2023-04-15T10:03:27;5.07;;;2.15;;
69256;SDS011;56376;53.356;-1.748;2023-04-15T10:05:56;6.50;;;2.42;;
69256;SDS011;56376;53.356;-1.748;2023-04-15T10:08:24;6.63;;;2.40;;
69256;SDS011;56376;53.356;-1.748;2023-04-15T10:10:51;4.90;;;2.83;;
69256;SDS011;56376;53.356;-1.748;2023-04-15T10:13:18;4.75;;;2.35;;
69256;SDS011;56376;53.356;-1.748;2023-04-15T10:15:55;3.72;;;2.25;;
69256;SDS011;56376;53.356;-1.748;2023-04-15T10:18:22;3.35;;;2.63;;
69256;SDS011;56376;53.356;-1.748;2023-04-15T10:20:52;2.50;;;1.80;;
69256;SDS011;56376;53.356;-1.748;2023-04-15T10:23:18;2.60;;;2.05;;
69256;SDS011;56376;53.356;-1.748;2023-04-15T10:25:45;4.22;;;2.15;;
69256;SDS011;56376;53.356;-1.748;2023-04-15T10:28:11;3.30;;;2.42;;
69256;SDS011;56376;53.356;-1.748;2023-04-15T10:30:38;3.67;;;2.08;;
69256;SDS011;56376;53.356;-1.748;2023-04-15T10:33:04;4.30;;;2.33;;
69256;SDS011;56376;53.356;-1.748;2023-04-15T10:35:31;2.45;;;1.65;;
69256;SDS011;56376;53.356;-1.748;2023-04-15T10:37:58;5.18;;;3.13;;
69256;SDS011;56376;53.356;-1.748;2023-04-15T10:42:56;3.92;;;2.30;;
69256;SDS011;56376;53.356;-1.748;2023-04-15T10:45:26;3.70;;;2.73;;
69256;SDS011;56376;53.356;-1.748;2023-04-15T10:47:56;3.60;;;2.38;;
69256;SDS011;56376;53.356;-1.748;2023-04-15T10:50:27;4.85;;;3.10;;
69256;SDS011;56376;53.356;-1.748;2023-04-15T10:52:55;5.63;;;2.95;;
69256;SDS011;56376;53.356;-1.748;2023-04-15T10:55:22;4.30;;;2.35;;
69256;SDS011;56376;53.356;-1.748;2023-04-15T10:57:52;4.03;;;2.85;;
69256;SDS011;56376;53.356;-1.748;2023-04-15T11:00:20;4.30;;;2.90;;
69256;SDS011;56376;53.356;-1.748;2023-04-15T11:02:54;4.68;;;2.78;;
69256;SDS011;56376;53.356;-1.748;2023-04-15T11:06:05;4.45;;;2.38;;
69256;SDS011;56376;53.356;-1.748;2023-04-15T11:08:06;3.85;;;2.20;;
69256;SDS011;56376;53.356;-1.748;2023-04-15T11:13:04;4.07;;;2.08;;
69256;SDS011;56376;53.356;-1.748;2023-04-15T11:15:45;3.60;;;2.60;;
69256;SDS011;56376;53.356;-1.748;2023-04-15T11:20:38;5.65;;;2.53;;
69256;SDS011;56376;53.356;-1.748;2023-04-15T11:23:04;3.05;;;2.60;;
69256;SDS011;56376;53.356;-1.748;2023-04-15T11:25:31;4.13;;;2.28;;
69256;SDS011;56376;53.356;-1.748;2023-04-15T11:27:58;3.72;;;2.30;;
69256;SDS011;56376;53.356;-1.748;2023-04-15T11:30:26;4.50;;;2.47;;
69256;SDS011;56376;53.356;-1.748;2023-04-15T11:32:58;5.13;;;2.28;;
69256;SDS011;56376;53.356;-1.748;2023-04-15T11:35:25;3.40;;;2.13;;
69256;SDS011;56376;53.356;-1.748;2023-04-15T11:37:51;5.28;;;2.70;;
69256;SDS011;56376;53.356;-1.748;2023-04-15T11:40:21;3.20;;;2.42;;
69256;SDS011;56376;53.356;-1.748;2023-04-15T11:43:03;3.72;;;2.45;;
69256;SDS011;56376;53.356;-1.748;2023-04-15T11:45:30;4.43;;;2.30;;
69256;SDS011;56376;53.356;-1.748;2023-04-15T11:48:03;3.28;;;2.03;;
69256;SDS011;56376;53.356;-1.748;2023-04-15T11:50:30;3.55;;;1.90;;
69256;SDS011;56376;53.356;-1.748;2023-04-15T11:52:57;2.70;;;1.98;;
69256;SDS011;56376;53.356;-1.748;2023-04-15T11:55:27;2.88;;;1.70;;
69256;SDS011;56376;53.356;-1.748;2023-04-15T12:00:38;8.27;;;3.40;;
69256;SDS011;56376;53.356;-1.748;2023-04-15T12:03:18;8.77;;;4.03;;
69256;SDS011;56376;53.356;-1.748;2023-04-15T12:11:37;3.50;;;2.03;;
69256;SDS011;56376;53.356;-1.748;2023-04-15T12:14:07;2.95;;;1.88;;
69256;SDS011;56376;53.356;-1.748;2023-04-15T12:16:35;3.25;;;2.40;;
69256;SDS011;56376;53.356;-1.748;2023-04-15T12:19:09;3.10;;;2.30;;
69256;SDS011;56376;53.356;-1.748;2023-04-15T12:21:37;3.85;;;2.13;;
69256;SDS011;56376;53.356;-1.748;2023-04-15T12:24:05;3.55;;;2.08;;
69256;SDS011;56376;53.356;-1.748;2023-04-15T12:26:36;3.95;;;2.75;;
69256;SDS011;56376;53.356;-1.748;2023-04-15T12:29:07;3.28;;;2.05;;
69256;SDS011;56376;53.356;-1.748;2023-04-15T12:31:33;4.90;;;2.35;;
69256;SDS011;56376;53.356;-1.748;2023-04-15T12:34:00;12.93;;;6.07;;
69256;SDS011;56376;53.356;-1.748;2023-04-15T12:36:27;11.38;;;4.55;;
69256;SDS011;56376;53.356;-1.748;2023-04-15T12:38:54;5.70;;;3.60;;
69256;SDS011;56376;53.356;-1.748;2023-04-15T12:41:20;5.65;;;3.38;;
69256;SDS011;56376;53.356;-1.748;2023-04-15T12:43:46;5.78;;;3.05;;
69256;SDS011;56376;53.356;-1.748;2023-04-15T12:46:14;7.07;;;3.15;;
69256;SDS011;56376;53.356;-1.748;2023-04-15T12:48:40;3.83;;;2.60;;
69256;SDS011;56376;53.356;-1.748;2023-04-15T12:51:06;4.25;;;2.78;;
69256;SDS011;56376;53.356;-1.748;2023-04-15T12:53:32;4.00;;;2.33;;
69256;SDS011;56376;53.356;-1.748;2023-04-15T12:55:57;3.25;;;2.15;;
69256;SDS011;56376;53.356;-1.748;2023-04-15T12:58:23;3.72;;;2.50;;
69256;SDS011;56376;53.356;-1.748;2023-04-15T13:00:48;4.10;;;2.38;;
69256;SDS011;56376;53.356;-1.748;2023-04-15T13:03:14;3.53;;;2.30;;
69256;SDS011;56376;53.356;-1.748;2023-04-15T13:05:40;3.78;;;2.40;;
69256;SDS011;56376;53.356;-1.748;2023-04-15T13:08:06;3.65;;;2.30;;
69256;SDS011;56376;53.356;-1.748;2023-04-15T13:10:32;3.47;;;2.20;;
69256;SDS011;56376;53.356;-1.748;2023-04-15T13:13:00;2.25;;;2.05;;
69256;SDS011;56376;53.356;-1.748;2023-04-15T13:15:26;2.90;;;2.45;;
69256;SDS011;56376;53.356;-1.748;2023-04-15T13:17:51;4.97;;;2.72;;
69256;SDS011;56376;53.356;-1.748;2023-04-15T13:20:17;4.72;;;2.92;;
69256;SDS011;56376;53.356;-1.748;2023-04-15T13:22:43;3.67;;;2.50;;
69256;SDS011;56376;53.356;-1.748;2023-04-15T13:25:08;3.78;;;2.55;;
69256;SDS011;56376;53.356;-1.748;2023-04-15T13:27:34;3.13;;;2.08;;
69256;SDS011;56376;53.356;-1.748;2023-04-15T13:29:59;3.28;;;2.30;;
69256;SDS011;56376;53.356;-1.748;2023-04-15T13:32:25;2.47;;;2.13;;
69256;SDS011;56376;53.356;-1.748;2023-04-15T13:34:50;2.63;;;2.00;;
69256;SDS011;56376;53.356;-1.748;2023-04-15T13:37:16;3.25;;;2.38;;
69256;SDS011;56376;53.356;-1.748;2023-04-15T13:39:41;4.00;;;2.20;;
69256;SDS011;56376;53.356;-1.748;2023-04-15T13:42:07;3.25;;;2.22;;
69256;SDS011;56376;53.356;-1.748;2023-04-15T13:44:33;3.00;;;2.28;;
69256;SDS011;56376;53.356;-1.748;2023-04-15T13:46:58;4.60;;;2.10;;
69256;SDS011;56376;53.356;-1.748;2023-04-15T13:49:24;3.72;;;2.42;;
69256;SDS011;56376;53.356;-1.748;2023-04-15T13:51:49;2.85;;;2.13;;
69256;SDS011;56376;53.356;-1.748;2023-04-15T13:54:15;3.22;;;2.17;;
69256;SDS011;56376;53.356;-1.748;2023-04-15T13:56:40;3.92;;;2.25;;
69256;SDS011;56376;53.356;-1.748;2023-04-15T13:59:06;3.63;;;2.70;;
69256;SDS011;56376;53.356;-1.748;2023-04-15T14:01:33;4.60;;;2.63;;
69256;SDS011;56376;53.356;-1.748;2023-04-15T14:03:58;4.10;;;2.67;;
69256;SDS011;56376;53.356;-1.748;2023-04-15T14:06:24;4.07;;;2.20;;
69256;SDS011;56376;53.356;-1.748;2023-04-15T14:08:51;3.58;;;1.92;;
69256;SDS011;56376;53.356;-1.748;2023-04-15T14:11:16;5.25;;;2.25;;
69256;SDS011;56376;53.356;-1.748;2023-04-15T14:13:42;2.65;;;1.98;;
69256;SDS011;56376;53.356;-1.748;2023-04-15T14:16:07;3.35;;;2.00;;
69256;SDS011;56376;53.356;-1.748;2023-04-15T14:18:33;3.08;;;1.90;;
69256;SDS011;56376;53.356;-1.748;2023-04-15T14:20:58;4.07;;;1.90;;
69256;SDS011;56376;53.356;-1.748;2023-04-15T14:23:24;3.72;;;1.83;;
69256;SDS011;56376;53.356;-1.748;2023-04-15T14:25:49;4.05;;;2.20;;
69256;SDS011;56376;53.356;-1.748;2023-04-15T14:28:15;1.95;;;1.73;;
69256;SDS011;56376;53.356;-1.748;2023-04-15T14:30:41;2.85;;;2.10;;
69256;SDS011;56376;53.356;-1.748;2023-04-15T14:33:07;2.88;;;2.10;;
69256;SDS011;56376;53.356;-1.748;2023-04-15T14:35:32;3.42;;;2.03;;
69256;SDS011;56376;53.356;-1.748;2023-04-15T14:37:57;3.17;;;2.13;;
69256;SDS011;56376;53.356;-1.748;2023-04-15T14:40:23;2.58;;;2.00;;
69256;SDS011;56376;53.356;-1.748;2023-04-15T14:42:48;2.92;;;2.00;;
69256;SDS011;56376;53.356;-1.748;2023-04-15T14:45:14;3.28;;;2.25;;